sensor_id;sensor_type;location;lat;lon;timestamp;temperature;humidity
16785;DHT22;8509;52.178;5.404;2024-01-15T00:02:25;1.90;99.90
16785;DHT22;8509;52.178;5.404;2024-01-15T00:04:50;1.90;99.90
16785;DHT22;8509;52.178;5.404;2024-01-15T00:07:16;1.90;99.90
16785;DHT22;8509;52.178;5.404;2024-01-15T00:09:42;1.90;99.90
16785;DHT22;8509;52.178;5.404;2024-01-15T00:12:07;1.80;99.90
16785;DHT22;8509;52.178;5.404;2024-01-15T00:14:33;1.80;99.90
16785;DHT22;8509;52.178;5.404;2024-01-15T00:16:59;1.90;99.90
16785;DHT22;8509;52.178;5.404;2024-01-15T00:19:24;1.80;99.90
16785;DHT22;8509;52.178;5.404;2024-01-15T00:21:50;1.80;99.90
16785;DHT22;8509;52.178;5.404;2024-01-15T00:24:16;1.70;99.90
16785;DHT22;8509;52.178;5.404;2024-01-15T00:26:42;1.80;99.90
16785;DHT22;8509;52.178;5.404;2024-01-15T00:29:08;1.80;99.90
16785;DHT22;8509;52.178;5.404;2024-01-15T00:31:34;1.70;99.90
16785;DHT22;8509;52.178;5.404;2024-01-15T00:34:00;1.60;99.90
16785;DHT22;8509;52.178;5.404;2024-01-15T00:36:25;1.70;99.90
16785;DHT22;8509;52.178;5.404;2024-01-15T00:38:51;1.60;99.90
16785;DHT22;8509;52.178;5.404;2024-01-15T00:41:17;1.60;99.90
16785;DHT22;8509;52.178;5.404;2024-01-15T00:43:44;1.60;99.90
16785;DHT22;8509;52.178;5.404;2024-01-15T00:46:10;1.50;99.90
16785;DHT22;8509;52.178;5.404;2024-01-15T00:48:36;1.60;99.90
16785;DHT22;8509;52.178;5.404;2024-01-15T00:51:02;1.80;99.90
16785;DHT22;8509;52.178;5.404;2024-01-15T00:53:27;1.60;99.90
16785;DHT22;8509;52.178;5.404;2024-01-15T00:55:53;1.60;99.90
16785;DHT22;8509;52.178;5.404;2024-01-15T00:58:19;1.60;99.90
16785;DHT22;8509;52.178;5.404;2024-01-15T01:00:44;1.60;99.90
16785;DHT22;8509;52.178;5.404;2024-01-15T01:03:10;1.60;99.90
16785;DHT22;8509;52.178;5.404;2024-01-15T01:05:36;1.70;99.90
16785;DHT22;8509;52.178;5.404;2024-01-15T01:08:03;1.60;99.90
16785;DHT22;8509;52.178;5.404;2024-01-15T01:10:28;1.60;99.90
16785;DHT22;8509;52.178;5.404;2024-01-15T01:12:54;1.70;99.90
16785;DHT22;8509;52.178;5.404;2024-01-15T01:15:20;1.60;99.90
16785;DHT22;8509;52.178;5.404;2024-01-15T01:17:46;1.70;99.90
16785;DHT22;8509;52.178;5.404;2024-01-15T01:20:12;1.60;99.90
16785;DHT22;8509;52.178;5.404;2024-01-15T01:22:38;1.70;99.90
16785;DHT22;8509;52.178;5.404;2024-01-15T01:25:04;1.60;99.90
16785;DHT22;8509;52.178;5.404;2024-01-15T01:27:30;1.60;99.90
16785;DHT22;8509;52.178;5.404;2024-01-15T01:29:56;1.60;99.90
16785;DHT22;8509;52.178;5.404;2024-01-15T01:32:21;1.70;99.90
16785;DHT22;8509;52.178;5.404;2024-01-15T01:34:47;1.70;99.90
16785;DHT22;8509;52.178;5.404;2024-01-15T01:37:13;1.70;99.90
16785;DHT22;8509;52.178;5.404;2024-01-15T01:39:40;1.60;99.90
16785;DHT22;8509;52.178;5.404;2024-01-15T01:42:06;1.50;99.90
16785;DHT22;8509;52.178;5.404;2024-01-15T01:44:32;1.50;99.90
16785;DHT22;8509;52.178;5.404;2024-01-15T01:46:59;1.50;99.90
16785;DHT22;8509;52.178;5.404;2024-01-15T01:49:25;1.50;99.90
16785;DHT22;8509;52.178;5.404;2024-01-15T01:51:52;1.50;99.90
16785;DHT22;8509;52.178;5.404;2024-01-15T01:54:19;1.40;99.90
16785;DHT22;8509;52.178;5.404;2024-01-15T01:56:47;1.40;99.90
16785;DHT22;8509;52.178;5.404;2024-01-15T01:59:13;1.40;99.90
16785;DHT22;8509;52.178;5.404;2024-01-15T02:01:39;1.30;99.90
16785;DHT22;8509;52.178;5.404;2024-01-15T02:04:05;1.40;99.90
16785;DHT22;8509;52.178;5.404;2024-01-15T02:06:30;1.70;99.90
16785;DHT22;8509;52.178;5.404;2024-01-15T02:08:56;1.60;99.90
16785;DHT22;8509;52.178;5.404;2024-01-15T02:11:22;1.70;99.90
16785;DHT22;8509;52.178;5.404;2024-01-15T02:13:47;1.80;99.90
16785;DHT22;8509;52.178;5.404;2024-01-15T02:16:13;1.90;99.90
16785;DHT22;8509;52.178;5.404;2024-01-15T02:18:44;1.90;99.90
16785;DHT22;8509;52.178;5.404;2024-01-15T02:21:10;1.90;99.90
16785;DHT22;8509;52.178;5.404;2024-01-15T02:23:37;1.90;99.90
16785;DHT22;8509;52.178;5.404;2024-01-15T02:26:03;1.90;99.90
16785;DHT22;8509;52.178;5.404;2024-01-15T02:28:29;1.80;99.90
16785;DHT22;8509;52.178;5.404;2024-01-15T02:30:55;1.80;99.90
16785;DHT22;8509;52.178;5.404;2024-01-15T02:33:22;1.90;99.90
16785;DHT22;8509;52.178;5.404;2024-01-15T02:35:48;1.90;99.90
16785;DHT22;8509;52.178;5.404;2024-01-15T02:38:15;2.00;99.90
16785;DHT22;8509;52.178;5.404;2024-01-15T02:40:42;2.00;99.90
16785;DHT22;8509;52.178;5.404;2024-01-15T02:43:08;1.90;99.90
16785;DHT22;8509;52.178;5.404;2024-01-15T02:45:34;1.80;99.90
16785;DHT22;8509;52.178;5.404;2024-01-15T02:47:59;1.90;99.90
16785;DHT22;8509;52.178;5.404;2024-01-15T02:50:25;1.90;99.90
16785;DHT22;8509;52.178;5.404;2024-01-15T02:52:51;1.90;99.90
16785;DHT22;8509;52.178;5.404;2024-01-15T02:55:17;1.90;99.90
16785;DHT22;8509;52.178;5.404;2024-01-15T02:57:43;1.90;99.90
16785;DHT22;8509;52.178;5.404;2024-01-15T03:00:09;1.80;99.90
16785;DHT22;8509;52.178;5.404;2024-01-15T03:02:38;1.80;99.90
16785;DHT22;8509;52.178;5.404;2024-01-15T03:05:09;1.80;99.90
16785;DHT22;8509;52.178;5.404;2024-01-15T03:07:35;1.80;99.90
16785;DHT22;8509;52.178;5.404;2024-01-15T03:10:01;1.80;99.90
16785;DHT22;8509;52.178;5.404;2024-01-15T03:12:27;1.90;99.90
16785;DHT22;8509;52.178;5.404;2024-01-15T03:14:52;2.00;99.90
16785;DHT22;8509;52.178;5.404;2024-01-15T03:17:18;2.00;99.90
16785;DHT22;8509;52.178;5.404;2024-01-15T03:19:44;2.10;99.90
16785;DHT22;8509;52.178;5.404;2024-01-15T03:22:10;2.10;99.90
16785;DHT22;8509;52.178;5.404;2024-01-15T03:24:35;2.10;99.90
16785;DHT22;8509;52.178;5.404;2024-01-15T03:27:02;2.20;99.90
16785;DHT22;8509;52.178;5.404;2024-01-15T03:29:27;2.30;99.90
16785;DHT22;8509;52.178;5.404;2024-01-15T03:31:53;2.30;99.90
16785;DHT22;8509;52.178;5.404;2024-01-15T03:34:19;2.30;99.90
16785;DHT22;8509;52.178;5.404;2024-01-15T03:36:44;2.30;99.90
16785;DHT22;8509;52.178;5.404;2024-01-15T03:39:10;2.30;99.90
16785;DHT22;8509;52.178;5.404;2024-01-15T03:41:36;2.40;99.90
16785;DHT22;8509;52.178;5.404;2024-01-15T03:44:02;2.40;99.90
16785;DHT22;8509;52.178;5.404;2024-01-15T03:46:27;2.30;99.90
16785;DHT22;8509;52.178;5.404;2024-01-15T03:48:53;2.40;99.90
16785;DHT22;8509;52.178;5.404;2024-01-15T03:51:19;2.30;99.90
16785;DHT22;8509;52.178;5.404;2024-01-15T03:53:44;2.30;99.90
16785;DHT22;8509;52.178;5.404;2024-01-15T03:56:10;2.10;99.90
16785;DHT22;8509;52.178;5.404;2024-01-15T03:58:36;2.10;99.90
16785;DHT22;8509;52.178;5.404;2024-01-15T04:01:02;1.90;99.90
16785;DHT22;8509;52.178;5.404;2024-01-15T04:03:27;1.80;99.90
16785;DHT22;8509;52.178;5.404;2024-01-15T04:05:53;1.70;99.90
16785;DHT22;8509;52.178;5.404;2024-01-15T04:08:19;1.70;99.90
16785;DHT22;8509;52.178;5.404;2024-01-15T04:10:44;1.60;99.90
16785;DHT22;8509;52.178;5.404;2024-01-15T04:13:10;1.50;99.90
16785;DHT22;8509;52.178;5.404;2024-01-15T04:15:36;1.60;99.90
16785;DHT22;8509;52.178;5.404;2024-01-15T04:18:02;1.50;99.90
16785;DHT22;8509;52.178;5.404;2024-01-15T04:20:28;1.50;99.90
16785;DHT22;8509;52.178;5.404;2024-01-15T04:22:54;1.40;99.90
16785;DHT22;8509;52.178;5.404;2024-01-15T04:25:19;1.40;99.90
16785;DHT22;8509;52.178;5.404;2024-01-15T04:27:45;1.40;99.90
16785;DHT22;8509;52.178;5.404;2024-01-15T04:30:11;1.40;99.90
16785;DHT22;8509;52.178;5.404;2024-01-15T04:32:37;1.40;99.90
16785;DHT22;8509;52.178;5.404;2024-01-15T04:35:02;1.40;99.90
16785;DHT22;8509;52.178;5.404;2024-01-15T04:37:28;1.40;99.90
16785;DHT22;8509;52.178;5.404;2024-01-15T04:39:54;1.30;99.90
16785;DHT22;8509;52.178;5.404;2024-01-15T04:42:21;1.30;99.90
16785;DHT22;8509;52.178;5.404;2024-01-15T04:44:47;1.30;99.90
16785;DHT22;8509;52.178;5.404;2024-01-15T04:47:13;1.30;99.90
16785;DHT22;8509;52.178;5.404;2024-01-15T04:49:38;1.30;99.90
16785;DHT22;8509;52.178;5.404;2024-01-15T04:52:04;1.50;99.90
16785;DHT22;8509;52.178;5.404;2024-01-15T04:54:30;1.40;99.90
16785;DHT22;8509;52.178;5.404;2024-01-15T04:56:55;1.50;99.90
16785;DHT22;8509;52.178;5.404;2024-01-15T04:59:21;1.70;99.90
16785;DHT22;8509;52.178;5.404;2024-01-15T05:01:47;1.80;99.90
16785;DHT22;8509;52.178;5.404;2024-01-15T05:04:14;1.80;99.90
16785;DHT22;8509;52.178;5.404;2024-01-15T05:06:40;1.90;99.90
16785;DHT22;8509;52.178;5.404;2024-01-15T05:09:05;1.90;99.90
16785;DHT22;8509;52.178;5.404;2024-01-15T05:11:32;2.00;99.90
16785;DHT22;8509;52.178;5.404;2024-01-15T05:13:58;2.00;99.90
16785;DHT22;8509;52.178;5.404;2024-01-15T05:16:23;1.80;99.90
16785;DHT22;8509;52.178;5.404;2024-01-15T05:18:49;1.80;99.90
16785;DHT22;8509;52.178;5.404;2024-01-15T05:21:15;1.90;99.90
16785;DHT22;8509;52.178;5.404;2024-01-15T05:23:40;1.90;99.90
16785;DHT22;8509;52.178;5.404;2024-01-15T05:26:06;1.80;99.90
16785;DHT22;8509;52.178;5.404;2024-01-15T05:28:32;1.80;99.90
16785;DHT22;8509;52.178;5.404;2024-01-15T05:30:58;1.80;99.90
16785;DHT22;8509;52.178;5.404;2024-01-15T05:33:23;1.80;99.90
16785;DHT22;8509;52.178;5.404;2024-01-15T05:35:49;1.80;99.90
16785;DHT22;8509;52.178;5.404;2024-01-15T05:38:16;1.80;99.90
16785;DHT22;8509;52.178;5.404;2024-01-15T05:40:42;1.90;99.90
16785;DHT22;8509;52.178;5.404;2024-01-15T05:43:08;1.90;99.90
16785;DHT22;8509;52.178;5.404;2024-01-15T05:45:35;2.00;99.90
16785;DHT22;8509;52.178;5.404;2024-01-15T05:48:01;2.00;99.90
16785;DHT22;8509;52.178;5.404;2024-01-15T05:50:27;2.10;99.90
16785;DHT22;8509;52.178;5.404;2024-01-15T05:52:52;2.10;99.90
16785;DHT22;8509;52.178;5.404;2024-01-15T05:55:18;2.10;99.90
16785;DHT22;8509;52.178;5.404;2024-01-15T05:57:45;2.10;99.90
16785;DHT22;8509;52.178;5.404;2024-01-15T06:00:11;2.20;99.90
16785;DHT22;8509;52.178;5.404;2024-01-15T06:02:38;2.20;99.90
16785;DHT22;8509;52.178;5.404;2024-01-15T06:05:04;2.20;99.90
16785;DHT22;8509;52.178;5.404;2024-01-15T06:07:29;2.10;99.90
16785;DHT22;8509;52.178;5.404;2024-01-15T06:09:55;2.10;99.90
16785;DHT22;8509;52.178;5.404;2024-01-15T06:12:22;2.00;99.90
16785;DHT22;8509;52.178;5.404;2024-01-15T06:14:48;1.90;99.90
16785;DHT22;8509;52.178;5.404;2024-01-15T06:17:14;1.90;99.90
16785;DHT22;8509;52.178;5.404;2024-01-15T06:19:39;1.90;99.90
16785;DHT22;8509;52.178;5.404;2024-01-15T06:22:05;2.10;99.90
16785;DHT22;8509;52.178;5.404;2024-01-15T06:24:31;1.90;99.90
16785;DHT22;8509;52.178;5.404;2024-01-15T06:26:56;2.00;99.90
16785;DHT22;8509;52.178;5.404;2024-01-15T06:29:25;1.90;99.90
16785;DHT22;8509;52.178;5.404;2024-01-15T06:31:51;2.00;99.90
16785;DHT22;8509;52.178;5.404;2024-01-15T06:34:16;2.10;99.90
16785;DHT22;8509;52.178;5.404;2024-01-15T06:36:42;2.00;99.90
16785;DHT22;8509;52.178;5.404;2024-01-15T06:39:08;2.00;99.90
16785;DHT22;8509;52.178;5.404;2024-01-15T06:41:38;2.00;99.90
16785;DHT22;8509;52.178;5.404;2024-01-15T06:44:12;2.10;99.90
16785;DHT22;8509;52.178;5.404;2024-01-15T06:46:45;1.80;99.90
16785;DHT22;8509;52.178;5.404;2024-01-15T06:49:11;1.70;99.90
16785;DHT22;8509;52.178;5.404;2024-01-15T06:51:37;1.70;99.90
16785;DHT22;8509;52.178;5.404;2024-01-15T06:54:03;1.70;99.90
16785;DHT22;8509;52.178;5.404;2024-01-15T06:56:30;1.70;99.90
16785;DHT22;8509;52.178;5.404;2024-01-15T06:58:56;1.70;99.90
16785;DHT22;8509;52.178;5.404;2024-01-15T07:01:22;1.80;99.90
16785;DHT22;8509;52.178;5.404;2024-01-15T07:03:48;1.80;99.90
16785;DHT22;8509;52.178;5.404;2024-01-15T07:06:13;1.90;99.90
16785;DHT22;8509;52.178;5.404;2024-01-15T07:08:40;1.90;99.90
16785;DHT22;8509;52.178;5.404;2024-01-15T07:11:06;2.00;99.90
16785;DHT22;8509;52.178;5.404;2024-01-15T07:13:32;2.00;99.90
16785;DHT22;8509;52.178;5.404;2024-01-15T07:15:58;2.10;99.90
16785;DHT22;8509;52.178;5.404;2024-01-15T07:18:24;2.20;99.90
16785;DHT22;8509;52.178;5.404;2024-01-15T07:20:50;2.00;99.90
16785;DHT22;8509;52.178;5.404;2024-01-15T07:23:16;2.00;99.90
16785;DHT22;8509;52.178;5.404;2024-01-15T07:25:42;2.00;99.90
16785;DHT22;8509;52.178;5.404;2024-01-15T07:28:08;1.90;99.90
16785;DHT22;8509;52.178;5.404;2024-01-15T07:30:34;2.00;99.90
16785;DHT22;8509;52.178;5.404;2024-01-15T07:33:00;1.80;99.90
16785;DHT22;8509;52.178;5.404;2024-01-15T07:35:26;1.80;99.90
16785;DHT22;8509;52.178;5.404;2024-01-15T07:37:52;1.70;99.90
16785;DHT22;8509;52.178;5.404;2024-01-15T07:40:17;1.80;99.90
16785;DHT22;8509;52.178;5.404;2024-01-15T07:42:43;1.80;99.90
16785;DHT22;8509;52.178;5.404;2024-01-15T07:45:12;1.80;99.90
16785;DHT22;8509;52.178;5.404;2024-01-15T07:47:38;1.90;99.90
16785;DHT22;8509;52.178;5.404;2024-01-15T07:50:04;1.90;99.90
16785;DHT22;8509;52.178;5.404;2024-01-15T07:52:30;1.90;99.90
16785;DHT22;8509;52.178;5.404;2024-01-15T07:54:56;1.90;99.90
16785;DHT22;8509;52.178;5.404;2024-01-15T07:57:22;1.80;99.90
16785;DHT22;8509;52.178;5.404;2024-01-15T07:59:48;1.90;99.90
16785;DHT22;8509;52.178;5.404;2024-01-15T08:02:13;1.70;99.90
16785;DHT22;8509;52.178;5.404;2024-01-15T08:04:41;1.80;99.90
16785;DHT22;8509;52.178;5.404;2024-01-15T08:07:06;1.70;99.90
16785;DHT22;8509;52.178;5.404;2024-01-15T08:09:35;1.60;99.90
16785;DHT22;8509;52.178;5.404;2024-01-15T08:12:00;1.60;99.90
16785;DHT22;8509;52.178;5.404;2024-01-15T08:14:26;1.60;99.90
16785;DHT22;8509;52.178;5.404;2024-01-15T08:16:52;1.60;99.90
16785;DHT22;8509;52.178;5.404;2024-01-15T08:19:17;1.50;99.90
16785;DHT22;8509;52.178;5.404;2024-01-15T08:21:45;1.60;99.90
16785;DHT22;8509;52.178;5.404;2024-01-15T08:24:10;1.60;99.90
16785;DHT22;8509;52.178;5.404;2024-01-15T08:26:36;1.60;99.90
16785;DHT22;8509;52.178;5.404;2024-01-15T08:29:02;1.70;99.90
16785;DHT22;8509;52.178;5.404;2024-01-15T08:31:27;1.80;99.90
16785;DHT22;8509;52.178;5.404;2024-01-15T08:33:54;1.80;99.90
16785;DHT22;8509;52.178;5.404;2024-01-15T08:36:30;1.80;99.90
16785;DHT22;8509;52.178;5.404;2024-01-15T08:38:56;1.80;99.90
16785;DHT22;8509;52.178;5.404;2024-01-15T08:41:22;1.80;99.90
16785;DHT22;8509;52.178;5.404;2024-01-15T08:43:49;1.70;99.90
16785;DHT22;8509;52.178;5.404;2024-01-15T08:46:17;1.70;99.90
16785;DHT22;8509;52.178;5.404;2024-01-15T08:48:44;1.70;99.90
16785;DHT22;8509;52.178;5.404;2024-01-15T08:51:10;1.60;99.90
16785;DHT22;8509;52.178;5.404;2024-01-15T08:53:36;1.60;99.90
16785;DHT22;8509;52.178;5.404;2024-01-15T08:56:01;1.60;99.90
16785;DHT22;8509;52.178;5.404;2024-01-15T08:58:27;1.70;99.90
16785;DHT22;8509;52.178;5.404;2024-01-15T09:00:53;1.70;99.90
16785;DHT22;8509;52.178;5.404;2024-01-15T09:03:19;1.80;99.90
16785;DHT22;8509;52.178;5.404;2024-01-15T09:05:45;1.80;99.90
16785;DHT22;8509;52.178;5.404;2024-01-15T09:08:11;2.10;99.90
16785;DHT22;8509;52.178;5.404;2024-01-15T09:10:37;2.20;99.90
16785;DHT22;8509;52.178;5.404;2024-01-15T09:13:02;2.10;99.90
16785;DHT22;8509;52.178;5.404;2024-01-15T09:15:30;2.30;99.90
16785;DHT22;8509;52.178;5.404;2024-01-15T09:17:55;2.40;99.90
16785;DHT22;8509;52.178;5.404;2024-01-15T09:20:23;2.40;99.90
16785;DHT22;8509;52.178;5.404;2024-01-15T09:22:49;2.40;99.90
16785;DHT22;8509;52.178;5.404;2024-01-15T09:25:14;2.30;99.90
16785;DHT22;8509;52.178;5.404;2024-01-15T09:27:40;2.20;99.90
16785;DHT22;8509;52.178;5.404;2024-01-15T09:30:06;2.10;99.90
16785;DHT22;8509;52.178;5.404;2024-01-15T09:32:32;2.10;99.90
16785;DHT22;8509;52.178;5.404;2024-01-15T09:34:58;2.00;99.90
16785;DHT22;8509;52.178;5.404;2024-01-15T09:37:24;1.90;99.90
16785;DHT22;8509;52.178;5.404;2024-01-15T09:39:50;1.90;99.90
16785;DHT22;8509;52.178;5.404;2024-01-15T09:42:16;1.80;99.90
16785;DHT22;8509;52.178;5.404;2024-01-15T09:44:42;1.80;99.90
16785;DHT22;8509;52.178;5.404;2024-01-15T09:47:08;1.90;99.90
16785;DHT22;8509;52.178;5.404;2024-01-15T09:49:34;2.10;99.90
16785;DHT22;8509;52.178;5.404;2024-01-15T09:52:01;2.30;99.90
16785;DHT22;8509;52.178;5.404;2024-01-15T09:54:27;2.40;99.90
16785;DHT22;8509;52.178;5.404;2024-01-15T09:56:54;2.60;99.90
16785;DHT22;8509;52.178;5.404;2024-01-15T09:59:22;2.40;99.90
16785;DHT22;8509;52.178;5.404;2024-01-15T10:01:50;2.50;99.90
16785;DHT22;8509;52.178;5.404;2024-01-15T10:04:17;2.60;99.90
16785;DHT22;8509;52.178;5.404;2024-01-15T10:06:45;2.70;99.90
16785;DHT22;8509;52.178;5.404;2024-01-15T10:09:14;2.80;99.90
16785;DHT22;8509;52.178;5.404;2024-01-15T10:11:44;2.80;99.90
16785;DHT22;8509;52.178;5.404;2024-01-15T10:14:11;3.00;99.90
16785;DHT22;8509;52.178;5.404;2024-01-15T10:16:40;2.70;99.90
16785;DHT22;8509;52.178;5.404;2024-01-15T10:19:06;2.70;99.90
16785;DHT22;8509;52.178;5.404;2024-01-15T10:21:32;2.80;99.90
16785;DHT22;8509;52.178;5.404;2024-01-15T10:24:02;3.10;99.90
16785;DHT22;8509;52.178;5.404;2024-01-15T10:26:32;3.20;99.90
16785;DHT22;8509;52.178;5.404;2024-01-15T10:29:01;3.20;99.90
16785;DHT22;8509;52.178;5.404;2024-01-15T10:31:28;2.90;99.90
16785;DHT22;8509;52.178;5.404;2024-01-15T10:33:54;2.80;99.90
16785;DHT22;8509;52.178;5.404;2024-01-15T10:36:20;2.70;99.90
16785;DHT22;8509;52.178;5.404;2024-01-15T10:38:46;2.60;99.90
16785;DHT22;8509;52.178;5.404;2024-01-15T10:41:12;2.60;99.90
16785;DHT22;8509;52.178;5.404;2024-01-15T10:43:38;2.50;99.90
16785;DHT22;8509;52.178;5.404;2024-01-15T10:46:07;2.60;99.90
16785;DHT22;8509;52.178;5.404;2024-01-15T10:48:33;2.70;99.90
16785;DHT22;8509;52.178;5.404;2024-01-15T10:51:01;2.70;99.90
16785;DHT22;8509;52.178;5.404;2024-01-15T10:53:39;2.80;99.90
16785;DHT22;8509;52.178;5.404;2024-01-15T10:56:06;2.80;99.90
16785;DHT22;8509;52.178;5.404;2024-01-15T10:58:33;2.70;99.90
16785;DHT22;8509;52.178;5.404;2024-01-15T11:01:01;2.80;99.90
16785;DHT22;8509;52.178;5.404;2024-01-15T11:03:27;2.90;99.90
16785;DHT22;8509;52.178;5.404;2024-01-15T11:05:53;3.20;99.90
16785;DHT22;8509;52.178;5.404;2024-01-15T11:08:20;3.20;99.90
16785;DHT22;8509;52.178;5.404;2024-01-15T11:10:48;3.10;99.90
16785;DHT22;8509;52.178;5.404;2024-01-15T11:16:03;3.00;99.90
16785;DHT22;8509;52.178;5.404;2024-01-15T11:19:21;3.00;99.90
16785;DHT22;8509;52.178;5.404;2024-01-15T11:21:22;2.90;99.90
16785;DHT22;8509;52.178;5.404;2024-01-15T11:29:06;2.70;99.90
16785;DHT22;8509;52.178;5.404;2024-01-15T11:34:08;2.80;99.90
16785;DHT22;8509;52.178;5.404;2024-01-15T11:37:00;2.90;99.90
16785;DHT22;8509;52.178;5.404;2024-01-15T11:42:02;2.90;99.90
16785;DHT22;8509;52.178;5.404;2024-01-15T11:44:29;3.00;99.90
16785;DHT22;8509;52.178;5.404;2024-01-15T11:47:33;3.30;99.90
16785;DHT22;8509;52.178;5.404;2024-01-15T11:50:05;3.40;99.90
16785;DHT22;8509;52.178;5.404;2024-01-15T11:52:36;3.50;99.90
16785;DHT22;8509;52.178;5.404;2024-01-15T11:55:11;3.70;99.90
16785;DHT22;8509;52.178;5.404;2024-01-15T11:57:50;3.50;99.90
16785;DHT22;8509;52.178;5.404;2024-01-15T12:00:17;3.50;99.90
16785;DHT22;8509;52.178;5.404;2024-01-15T12:02:44;3.60;99.90
16785;DHT22;8509;52.178;5.404;2024-01-15T12:05:12;3.80;99.90
16785;DHT22;8509;52.178;5.404;2024-01-15T12:07:41;3.90;99.90
16785;DHT22;8509;52.178;5.404;2024-01-15T12:15:09;3.40;99.90
16785;DHT22;8509;52.178;5.404;2024-01-15T12:17:35;3.30;99.90
16785;DHT22;8509;52.178;5.404;2024-01-15T12:20:04;3.10;99.90
16785;DHT22;8509;52.178;5.404;2024-01-15T12:22:30;3.00;99.90
16785;DHT22;8509;52.178;5.404;2024-01-15T12:25:01;3.00;99.90
16785;DHT22;8509;52.178;5.404;2024-01-15T12:27:30;3.10;99.90
16785;DHT22;8509;52.178;5.404;2024-01-15T12:29:55;3.10;99.90
16785;DHT22;8509;52.178;5.404;2024-01-15T12:32:22;3.20;99.90
16785;DHT22;8509;52.178;5.404;2024-01-15T12:34:49;3.30;99.90
16785;DHT22;8509;52.178;5.404;2024-01-15T12:37:18;3.40;99.90
16785;DHT22;8509;52.178;5.404;2024-01-15T12:39:45;3.40;99.90
16785;DHT22;8509;52.178;5.404;2024-01-15T12:42:10;3.30;99.90
16785;DHT22;8509;52.178;5.404;2024-01-15T12:44:36;3.10;99.90
16785;DHT22;8509;52.178;5.404;2024-01-15T12:47:06;2.90;99.90
16785;DHT22;8509;52.178;5.404;2024-01-15T12:49:31;2.80;99.90
16785;DHT22;8509;52.178;5.404;2024-01-15T12:51:58;2.70;99.90
16785;DHT22;8509;52.178;5.404;2024-01-15T12:54:24;3.00;99.90
16785;DHT22;8509;52.178;5.404;2024-01-15T12:56:51;2.80;99.90
16785;DHT22;8509;52.178;5.404;2024-01-15T12:59:17;2.80;99.90
16785;DHT22;8509;52.178;5.404;2024-01-15T13:01:44;2.90;99.90
16785;DHT22;8509;52.178;5.404;2024-01-15T13:04:10;2.90;99.90
16785;DHT22;8509;52.178;5.404;2024-01-15T13:06:36;3.00;99.90
16785;DHT22;8509;52.178;5.404;2024-01-15T13:09:03;2.80;99.90
16785;DHT22;8509;52.178;5.404;2024-01-15T13:11:34;2.90;99.90
16785;DHT22;8509;52.178;5.404;2024-01-15T13:13:59;2.90;99.90
16785;DHT22;8509;52.178;5.404;2024-01-15T13:16:25;2.80;99.90
16785;DHT22;8509;52.178;5.404;2024-01-15T13:18:54;2.70;99.90
16785;DHT22;8509;52.178;5.404;2024-01-15T13:21:21;2.60;99.90
16785;DHT22;8509;52.178;5.404;2024-01-15T13:23:46;2.70;99.90
16785;DHT22;8509;52.178;5.404;2024-01-15T13:26:12;2.70;99.90
16785;DHT22;8509;52.178;5.404;2024-01-15T13:28:38;2.70;99.90
16785;DHT22;8509;52.178;5.404;2024-01-15T13:31:04;2.60;99.90
16785;DHT22;8509;52.178;5.404;2024-01-15T13:33:30;2.60;99.90
16785;DHT22;8509;52.178;5.404;2024-01-15T13:35:56;2.60;99.90
16785;DHT22;8509;52.178;5.404;2024-01-15T13:38:21;2.50;99.90
16785;DHT22;8509;52.178;5.404;2024-01-15T13:40:47;2.60;99.90
16785;DHT22;8509;52.178;5.404;2024-01-15T13:43:13;2.70;99.90
16785;DHT22;8509;52.178;5.404;2024-01-15T13:45:42;2.90;99.90
16785;DHT22;8509;52.178;5.404;2024-01-15T13:48:08;3.20;99.90
16785;DHT22;8509;52.178;5.404;2024-01-15T13:50:34;3.30;99.90
16785;DHT22;8509;52.178;5.404;2024-01-15T13:53:02;3.40;99.90
16785;DHT22;8509;52.178;5.404;2024-01-15T13:55:29;3.30;99.90
16785;DHT22;8509;52.178;5.404;2024-01-15T13:57:54;3.20;99.90
16785;DHT22;8509;52.178;5.404;2024-01-15T14:00:20;3.20;99.90
16785;DHT22;8509;52.178;5.404;2024-01-15T14:02:47;3.20;99.90
16785;DHT22;8509;52.178;5.404;2024-01-15T14:05:13;3.20;99.90
16785;DHT22;8509;52.178;5.404;2024-01-15T14:07:39;3.10;99.90
16785;DHT22;8509;52.178;5.404;2024-01-15T14:10:05;3.00;99.90
16785;DHT22;8509;52.178;5.404;2024-01-15T14:12:33;2.90;99.90
16785;DHT22;8509;52.178;5.404;2024-01-15T14:15:00;3.00;99.90
16785;DHT22;8509;52.178;5.404;2024-01-15T14:17:26;3.20;99.90
16785;DHT22;8509;52.178;5.404;2024-01-15T14:19:51;3.10;99.90
16785;DHT22;8509;52.178;5.404;2024-01-15T14:22:17;3.10;99.90
16785;DHT22;8509;52.178;5.404;2024-01-15T14:24:43;3.10;99.90
16785;DHT22;8509;52.178;5.404;2024-01-15T14:27:08;3.10;99.90
16785;DHT22;8509;52.178;5.404;2024-01-15T14:29:35;3.10;99.90
16785;DHT22;8509;52.178;5.404;2024-01-15T14:32:01;3.20;99.90
16785;DHT22;8509;52.178;5.404;2024-01-15T14:34:27;3.30;99.90
16785;DHT22;8509;52.178;5.404;2024-01-15T14:36:53;3.60;99.90
16785;DHT22;8509;52.178;5.404;2024-01-15T14:39:21;3.80;99.90
16785;DHT22;8509;52.178;5.404;2024-01-15T14:41:46;3.90;99.90
16785;DHT22;8509;52.178;5.404;2024-01-15T14:44:12;3.80;99.90
16785;DHT22;8509;52.178;5.404;2024-01-15T14:46:39;3.50;99.90
16785;DHT22;8509;52.178;5.404;2024-01-15T14:49:05;3.40;99.90
16785;DHT22;8509;52.178;5.404;2024-01-15T14:51:30;3.20;99.90
16785;DHT22;8509;52.178;5.404;2024-01-15T14:53:56;3.10;99.90
16785;DHT22;8509;52.178;5.404;2024-01-15T14:56:22;3.10;99.90
16785;DHT22;8509;52.178;5.404;2024-01-15T14:58:48;3.10;99.90
16785;DHT22;8509;52.178;5.404;2024-01-15T15:01:14;2.90;99.90
16785;DHT22;8509;52.178;5.404;2024-01-15T15:03:40;2.90;99.90
16785;DHT22;8509;52.178;5.404;2024-01-15T15:06:06;2.80;99.90
16785;DHT22;8509;52.178;5.404;2024-01-15T15:08:33;2.70;99.90
16785;DHT22;8509;52.178;5.404;2024-01-15T15:11:00;2.70;99.90
16785;DHT22;8509;52.178;5.404;2024-01-15T15:13:26;2.70;99.90
16785;DHT22;8509;52.178;5.404;2024-01-15T15:15:54;2.60;99.90
16785;DHT22;8509;52.178;5.404;2024-01-15T15:18:20;2.60;99.90
16785;DHT22;8509;52.178;5.404;2024-01-15T15:20:50;2.50;99.90
16785;DHT22;8509;52.178;5.404;2024-01-15T15:23:16;2.50;99.90
16785;DHT22;8509;52.178;5.404;2024-01-15T15:25:42;2.50;99.90
16785;DHT22;8509;52.178;5.404;2024-01-15T15:28:10;2.40;99.90
16785;DHT22;8509;52.178;5.404;2024-01-15T15:30:37;2.50;99.90
16785;DHT22;8509;52.178;5.404;2024-01-15T15:33:03;2.60;99.90
16785;DHT22;8509;52.178;5.404;2024-01-15T15:35:30;2.70;99.90
16785;DHT22;8509;52.178;5.404;2024-01-15T15:37:56;2.80;99.90
16785;DHT22;8509;52.178;5.404;2024-01-15T15:40:22;2.80;99.90
16785;DHT22;8509;52.178;5.404;2024-01-15T15:42:48;2.70;99.90
16785;DHT22;8509;52.178;5.404;2024-01-15T15:45:14;2.60;99.90
16785;DHT22;8509;52.178;5.404;2024-01-15T15:47:40;2.60;99.90
16785;DHT22;8509;52.178;5.404;2024-01-15T15:50:06;2.60;99.90
16785;DHT22;8509;52.178;5.404;2024-01-15T15:52:32;2.60;99.90
16785;DHT22;8509;52.178;5.404;2024-01-15T15:54:57;2.70;99.90
16785;DHT22;8509;52.178;5.404;2024-01-15T15:57:23;2.70;99.90
16785;DHT22;8509;52.178;5.404;2024-01-15T15:59:49;2.40;99.90
16785;DHT22;8509;52.178;5.404;2024-01-15T16:02:15;2.40;99.90
16785;DHT22;8509;52.178;5.404;2024-01-15T16:04:41;2.30;99.90
16785;DHT22;8509;52.178;5.404;2024-01-15T16:07:06;2.40;99.90
16785;DHT22;8509;52.178;5.404;2024-01-15T16:09:35;2.30;99.90
16785;DHT22;8509;52.178;5.404;2024-01-15T16:12:01;2.20;99.90
16785;DHT22;8509;52.178;5.404;2024-01-15T16:14:27;2.20;99.90
16785;DHT22;8509;52.178;5.404;2024-01-15T16:16:52;2.10;99.90